Time;durP1;ratioP1;P1;durP2;ratioP2;P2;SDS_P1;SDS_P2;PMS_P1;PMS_P2;Temp;Humidity;BMP_temperature;BMP_pressure;BME280_temperature;BME280_humidity;BME280_pressure;Samples;Min_cycle;Max_cycle;Signal;HPM_P1;HPM_P2
2023/02/26 06:37:36;;;;;;;0.40;0.40;;;;;;;;;;7437135;19;20149;-95
2023/02/26 06:40:04;;;;;;;0.30;0.30;;;;;;;;;;7433603;19;20160;-96
2023/02/26 06:43:13;;;;;;;0.40;0.40;;;;;;;;;;7437058;19;20152;-95
2023/02/26 06:47:03;;;;;;;0.30;0.30;;;;;;;;;;7432825;19;20151;-95
2023/02/26 07:58:03;;;;;;;0.30;0.30;;;;;;;;;;7422814;19;20153;-95
2023/02/26 08:00:30;;;;;;;1.57;0.37;;;;;;;;;;7417034;19;20165;-95
2023/02/26 08:02:57;;;;;;;0.30;0.30;;;;;;;;;;7424658;19;20169;-93
2023/02/26 08:05:23;;;;;;;0.30;0.30;;;;;;;;;;7426459;19;20146;-94
2023/02/26 08:07:50;;;;;;;0.30;0.30;;;;;;;;;;7419309;19;20160;-93
2023/02/26 08:10:17;;;;;;;0.93;0.53;;;;;;;;;;7419533;19;20158;-95
2023/02/26 08:12:43;;;;;;;0.50;0.50;;;;;;;;;;7423425;19;20144;-95
2023/02/26 08:15:13;;;;;;;0.40;0.40;;;;;;;;;;7424217;19;20148;-93
2023/02/26 08:17:40;;;;;;;0.30;0.30;;;;;;;;;;7425458;19;20133;-94
2023/02/26 08:20:11;;;;;;;0.30;0.30;;;;;;;;;;7423119;19;20169;-96
2023/02/26 08:22:43;;;;;;;0.30;0.30;;;;;;;;;;7423160;19;20143;-96
2023/02/26 08:25:31;;;;;;;0.30;0.30;;;;;;;;;;7426619;19;20148;-95
2023/02/26 08:28:04;;;;;;;0.30;0.30;;;;;;;;;;7424720;19;20136;-94
2023/02/26 08:30:31;;;;;;;0.40;0.40;;;;;;;;;;7426066;19;20133;-95
2023/02/26 08:33:03;;;;;;;0.30;0.30;;;;;;;;;;7426313;19;20154;-95
2023/02/26 08:35:37;;;;;;;0.30;0.30;;;;;;;;;;7427620;19;20140;-96
2023/02/26 08:38:06;;;;;;;0.30;0.30;;;;;;;;;;7426249;19;20177;-95
2023/02/26 08:40:33;;;;;;;0.37;0.37;;;;;;;;;;7420976;19;20144;-95
2023/02/26 08:43:02;;;;;;;0.87;0.70;;;;;;;;;;7425470;19;20165;-96
2023/02/26 08:45:28;;;;;;;0.37;0.37;;;;;;;;;;7424502;19;20168;-96
2023/02/26 08:47:55;;;;;;;0.37;0.30;;;;;;;;;;7426213;19;20145;-93
2023/02/26 08:50:33;;;;;;;0.40;0.40;;;;;;;;;;7419824;19;20500;-94
2023/02/26 08:53:01;;;;;;;0.43;0.43;;;;;;;;;;7426356;19;20141;-95
2023/02/26 08:55:28;;;;;;;0.70;0.63;;;;;;;;;;7415388;19;20176;-95
2023/02/26 08:57:55;;;;;;;0.40;0.40;;;;;;;;;;7421470;19;20141;-96
2023/02/26 09:00:22;;;;;;;0.30;0.30;;;;;;;;;;7418745;19;20145;-94
2023/02/26 09:02:49;;;;;;;0.30;0.30;;;;;;;;;;7422924;19;20161;-94
2023/02/26 09:05:16;;;;;;;0.30;0.30;;;;;;;;;;7424995;19;20156;-93
2023/02/26 09:07:44;;;;;;;0.40;0.40;;;;;;;;;;7422546;19;20141;-96
2023/02/26 09:10:15;;;;;;;0.30;0.30;;;;;;;;;;7419653;19;20180;-96
2023/02/26 09:12:45;;;;;;;0.30;0.30;;;;;;;;;;7423792;19;20160;-95
2023/02/26 09:15:18;;;;;;;0.30;0.30;;;;;;;;;;7425965;19;20137;-94
2023/02/26 09:17:46;;;;;;;0.90;0.53;;;;;;;;;;7423892;19;20141;-95
2023/02/26 09:20:14;;;;;;;0.40;0.40;;;;;;;;;;7416140;19;20137;-93
2023/02/26 09:22:41;;;;;;;0.40;0.40;;;;;;;;;;7416345;19;20137;-96
2023/02/26 09:25:08;;;;;;;0.20;0.20;;;;;;;;;;7422109;19;20137;-95
2023/02/26 09:27:35;;;;;;;0.30;0.30;;;;;;;;;;7414721;19;20142;-94
2023/02/26 09:30:04;;;;;;;0.30;0.30;;;;;;;;;;7418645;19;20189;-94
2023/02/26 09:32:31;;;;;;;0.37;0.37;;;;;;;;;;7418471;19;20136;-93
2023/02/26 09:34:58;;;;;;;0.40;0.40;;;;;;;;;;7424423;19;20141;-95
2023/02/26 09:37:25;;;;;;;0.37;0.37;;;;;;;;;;7423238;19;20137;-96
2023/02/26 09:39:51;;;;;;;0.30;0.30;;;;;;;;;;7420295;19;20210;-95
2023/02/26 09:42:54;;;;;;;0.40;0.40;;;;;;;;;;7421541;19;20161;-94
2023/02/26 09:45:32;;;;;;;0.30;0.30;;;;;;;;;;7422128;19;20169;-94
2023/02/26 09:48:00;;;;;;;0.40;0.40;;;;;;;;;;7419670;19;20136;-94
2023/02/26 09:50:40;;;;;;;0.50;0.50;;;;;;;;;;7414795;19;20160;-94
2023/02/26 09:55:49;;;;;;;0.40;0.40;;;;;;;;;;7379938;19;20180;-90
2023/02/26 09:58:29;;;;;;;0.40;0.40;;;;;;;;;;7373080;19;20151;-89
2023/02/26 10:01:11;;;;;;;0.57;0.57;;;;;;;;;;7392572;19;20575;-93
2023/02/26 10:04:02;;;;;;;0.30;0.30;;;;;;;;;;7392958;19;20136;-92
2023/02/26 10:06:32;;;;;;;1.23;0.40;;;;;;;;;;7401912;19;20162;-94
2023/02/26 10:09:20;;;;;;;0.40;0.40;;;;;;;;;;7396730;19;20157;-93
2023/02/26 10:12:05;;;;;;;0.47;0.47;;;;;;;;;;7404979;19;20173;-93
2023/02/26 10:15:22;;;;;;;0.30;0.30;;;;;;;;;;7405279;19;20147;-94
2023/02/26 10:18:13;;;;;;;0.37;0.37;;;;;;;;;;7397625;19;20647;-95
2023/02/26 10:20:59;;;;;;;0.40;0.40;;;;;;;;;;7405439;19;20149;-93
2023/02/26 10:23:38;;;;;;;0.40;0.40;;;;;;;;;;7403060;19;20132;-93
2023/02/26 10:26:21;;;;;;;0.30;0.30;;;;;;;;;;7416579;19;20141;-95
2023/02/26 10:29:16;;;;;;;0.37;0.37;;;;;;;;;;7424609;19;20144;-93
2023/02/26 10:32:11;;;;;;;0.30;0.30;;;;;;;;;;7410665;19;20204;-95
2023/02/26 10:35:07;;;;;;;0.30;0.30;;;;;;;;;;7406336;19;20237;-95
2023/02/26 10:37:46;;;;;;;0.20;0.20;;;;;;;;;;7400921;19;20180;-92
2023/02/26 10:40:18;;;;;;;0.40;0.40;;;;;;;;;;7401955;19;20153;-91
2023/02/26 10:42:50;;;;;;;0.20;0.20;;;;;;;;;;7414263;19;20176;-91
2023/02/26 10:45:28;;;;;;;0.20;0.20;;;;;;;;;;7433504;19;20129;-93
2023/02/26 10:48:20;;;;;;;0.30;0.30;;;;;;;;;;7430571;19;20158;-92
2023/02/26 10:50:51;;;;;;;0.40;0.40;;;;;;;;;;7398109;19;20681;-93
2023/02/26 10:53:19;;;;;;;0.60;0.60;;;;;;;;;;7397804;19;20145;-89
2023/02/26 10:56:04;;;;;;;0.30;0.30;;;;;;;;;;7400777;19;20705;-90
2023/02/26 10:58:39;;;;;;;0.30;0.30;;;;;;;;;;7401066;19;20143;-91
2023/02/26 11:01:13;;;;;;;0.20;0.20;;;;;;;;;;7398614;19;20141;-91
2023/02/26 11:03:43;;;;;;;0.30;0.30;;;;;;;;;;7399839;19;20132;-91
2023/02/26 11:06:27;;;;;;;0.40;0.40;;;;;;;;;;7415752;19;20141;-92
2023/02/26 11:09:05;;;;;;;0.37;0.37;;;;;;;;;;7431740;19;20145;-92
2023/02/26 11:11:47;;;;;;;0.40;0.40;;;;;;;;;;7429825;19;20177;-90
2023/02/26 11:14:14;;;;;;;0.30;0.30;;;;;;;;;;7391030;19;20496;-93
2023/02/26 11:16:46;;;;;;;0.30;0.30;;;;;;;;;;7394239;19;20517;-91
2023/02/26 11:19:14;;;;;;;0.40;0.40;;;;;;;;;;7393013;19;20133;-92
2023/02/26 11:21:43;;;;;;;0.30;0.30;;;;;;;;;;7396604;19;20164;-91
2023/02/26 11:24:20;;;;;;;0.30;0.30;;;;;;;;;;7394274;19;20137;-93
2023/02/26 11:26:49;;;;;;;0.37;0.37;;;;;;;;;;7392247;19;20173;-90
2023/02/26 11:29:18;;;;;;;0.30;0.30;;;;;;;;;;7391406;19;20143;-90
2023/02/26 11:31:50;;;;;;;0.30;0.30;;;;;;;;;;7376639;19;20141;-90
2023/02/26 11:34:22;;;;;;;0.30;0.30;;;;;;;;;;7392206;19;20531;-89
2023/02/26 11:36:50;;;;;;;0.40;0.40;;;;;;;;;;7394513;19;20268;-89
2023/02/26 11:39:22;;;;;;;0.40;0.40;;;;;;;;;;7392216;19;20677;-88
2023/02/26 11:41:51;;;;;;;0.53;0.50;;;;;;;;;;7393026;19;20144;-89
2023/02/26 11:44:21;;;;;;;0.30;0.30;;;;;;;;;;7392603;19;20174;-90
2023/02/26 11:46:53;;;;;;;0.30;0.30;;;;;;;;;;7393688;19;20165;-90
2023/02/26 11:49:23;;;;;;;0.33;0.33;;;;;;;;;;7395205;19;20141;-90
2023/02/26 11:52:10;;;;;;;0.37;0.37;;;;;;;;;;7394793;19;20510;-90
2023/02/26 11:54:38;;;;;;;0.40;0.40;;;;;;;;;;7393049;19;20156;-90
2023/02/26 11:57:10;;;;;;;0.30;0.30;;;;;;;;;;7386254;19;20161;-89
2023/02/26 11:59:39;;;;;;;0.40;0.40;;;;;;;;;;7383928;19;20721;-90
2023/02/26 12:02:12;;;;;;;0.40;0.40;;;;;;;;;;7389516;19;20137;-91
2023/02/26 12:04:42;;;;;;;0.30;0.30;;;;;;;;;;7389289;19;20169;-91
2023/02/26 12:07:15;;;;;;;0.30;0.30;;;;;;;;;;7387075;19;20156;-91
2023/02/26 12:09:42;;;;;;;0.30;0.30;;;;;;;;;;7390546;19;20141;-89
2023/02/26 12:12:30;;;;;;;0.57;0.57;;;;;;;;;;7389549;19;20145;-90
2023/02/26 12:15:03;;;;;;;0.30;0.30;;;;;;;;;;7392963;19;20145;-89
2023/02/26 12:17:53;;;;;;;0.70;0.60;;;;;;;;;;7389641;19;20156;-88
2023/02/26 12:21:14;;;;;;;0.40;0.40;;;;;;;;;;7387565;19;20168;-89
2023/02/26 12:24:05;;;;;;;0.30;0.30;;;;;;;;;;7388855;19;20624;-90
2023/02/26 12:26:40;;;;;;;0.47;0.47;;;;;;;;;;7388266;19;20171;-91
2023/02/26 12:29:19;;;;;;;0.30;0.30;;;;;;;;;;7392887;19;20727;-91
2023/02/26 12:31:58;;;;;;;0.40;0.40;;;;;;;;;;7384097;19;20144;-90
2023/02/26 12:35:02;;;;;;;0.50;0.50;;;;;;;;;;7384903;19;20165;-90
2023/02/26 12:38:16;;;;;;;0.30;0.30;;;;;;;;;;7393408;19;20179;-92
2023/02/26 12:45:09;;;;;;;0.60;0.60;;;;;;;;;;7389304;19;20174;-91
2023/02/26 12:48:19;;;;;;;0.50;0.50;;;;;;;;;;7390898;19;20168;-91
2023/02/26 12:51:10;;;;;;;0.30;0.30;;;;;;;;;;7393783;19;20137;-91
